createdAt,value
2022-08-18T00:01:15.866Z,35.93
2022-08-18T00:03:56.765Z,29.70
2022-08-18T00:06:32.168Z,31.57
2022-08-18T00:09:03.130Z,30.43
2022-08-18T00:11:41.444Z,26.53
2022-08-18T00:14:22.106Z,38.73
2022-08-18T00:16:54.971Z,30.90
2022-08-18T00:19:47.588Z,42.27
2022-08-18T00:22:15.894Z,35.83
2022-08-18T00:24:48.256Z,40.83
2022-08-18T00:27:23.227Z,44.97
2022-08-18T00:29:53.894Z,37.77
2022-08-18T00:32:28.232Z,37.40
2022-08-18T00:34:57.024Z,35.60
2022-08-18T00:37:25.853Z,33.67
2022-08-18T00:39:54.944Z,48.83
2022-08-18T00:42:30.513Z,36.77
2022-08-18T00:45:02.188Z,30.37
2022-08-18T00:47:41.123Z,39.37
2022-08-18T00:50:15.961Z,32.83
2022-08-18T00:52:52.424Z,38.53
2022-08-18T00:55:22.988Z,34.07
2022-08-18T00:57:56.092Z,34.00
2022-08-18T01:00:24.704Z,36.53
2022-08-18T01:03:00.449Z,38.87
2022-08-18T01:05:33.867Z,37.10
2022-08-18T01:08:02.689Z,41.70
2022-08-18T01:10:35.269Z,44.13
2022-08-18T01:13:04.734Z,46.87
2022-08-18T01:15:33.940Z,44.43
2022-08-18T01:18:26.352Z,41.43
2022-08-18T01:21:27.265Z,31.73
2022-08-18T01:23:58.579Z,39.23
2022-08-18T01:26:28.517Z,34.33
2022-08-18T01:29:04.844Z,35.23
2022-08-18T01:31:38.288Z,36.23
2022-08-18T01:34:08.544Z,41.40
2022-08-18T01:36:38.923Z,39.70
2022-08-18T01:39:11.124Z,45.53
2022-08-18T01:41:40.523Z,42.70
2022-08-18T01:44:11.531Z,43.07
2022-08-18T01:46:42.304Z,42.57
2022-08-18T01:49:13.257Z,49.13
2022-08-18T01:51:42.668Z,37.37
2022-08-18T01:54:15.590Z,49.53
2022-08-18T01:56:44.839Z,31.83
2022-08-18T01:59:14.628Z,34.20
2022-08-18T02:01:50.395Z,39.50
2022-08-18T02:04:35.681Z,33.80
2022-08-18T02:07:08.670Z,38.03
2022-08-18T02:09:40.479Z,40.97
2022-08-18T02:12:10.144Z,36.50
2022-08-18T02:14:39.295Z,29.83
2022-08-18T02:17:10.141Z,23.90
2022-08-18T02:19:40.817Z,35.53
2022-08-18T02:22:11.648Z,30.73
2022-08-18T02:24:41.924Z,31.17
2022-08-18T02:27:12.004Z,25.90
2022-08-18T02:29:41.061Z,29.17
2022-08-18T02:32:09.859Z,24.83
2022-08-18T02:34:38.277Z,24.27
2022-08-18T02:37:06.711Z,26.83
2022-08-18T02:39:37.894Z,29.27
2022-08-18T02:42:09.103Z,33.03
2022-08-18T02:44:37.620Z,33.63
2022-08-18T02:47:06.113Z,29.27
2022-08-18T02:49:36.798Z,32.50
2022-08-18T02:52:06.072Z,39.47
2022-08-18T02:54:35.243Z,48.63
2022-08-18T02:57:10.613Z,32.67
2022-08-18T02:59:40.480Z,40.57
2022-08-18T03:02:10.039Z,55.73
2022-08-18T03:04:38.586Z,137.23
2022-08-18T03:07:09.240Z,215.83
2022-08-18T03:09:39.415Z,67.27
2022-08-18T03:12:10.344Z,144.63
2022-08-18T03:14:39.887Z,283.57
2022-08-18T03:17:10.412Z,131.40
2022-08-18T03:19:38.847Z,152.83
2022-08-18T03:22:27.627Z,97.77
2022-08-18T03:24:58.623Z,117.17
2022-08-18T03:27:28.531Z,95.33
2022-08-18T03:29:58.779Z,84.50
2022-08-18T03:32:27.562Z,54.50
2022-08-18T03:34:56.010Z,72.57
2022-08-18T03:37:24.611Z,157.17
2022-08-18T03:39:53.067Z,105.70
2022-08-18T03:42:22.420Z,106.13
2022-08-18T03:44:52.390Z,112.83
2022-08-18T03:47:21.157Z,78.37
2022-08-18T03:49:49.911Z,78.53
2022-08-18T03:52:18.389Z,73.17
2022-08-18T03:54:47.778Z,39.40
2022-08-18T03:57:16.261Z,53.97
2022-08-18T03:59:44.780Z,39.63
2022-08-18T04:02:15.393Z,46.50
2022-08-18T04:04:43.807Z,38.70
2022-08-18T04:07:17.474Z,32.93
2022-08-18T04:09:46.090Z,38.53
2022-08-18T04:12:17.561Z,33.57
2022-08-18T04:14:49.764Z,43.83
2022-08-18T04:17:24.309Z,49.23
2022-08-18T04:19:53.265Z,52.67
2022-08-18T04:22:22.637Z,35.23
2022-08-18T04:24:51.302Z,41.47
2022-08-18T04:27:20.429Z,46.13
2022-08-18T04:29:49.329Z,39.83
2022-08-18T04:32:19.341Z,55.90
2022-08-18T04:34:47.775Z,33.00
2022-08-18T04:37:16.628Z,53.87
2022-08-18T04:43:55.621Z,47.47
2022-08-18T04:46:24.507Z,64.97
2022-08-18T04:48:58.424Z,60.53
2022-08-18T04:52:22.632Z,67.87
2022-08-18T04:54:16.975Z,53.97
2022-08-18T04:56:45.437Z,53.73
2022-08-18T04:59:15.537Z,55.07
2022-08-18T05:01:47.673Z,65.30
2022-08-18T05:04:18.781Z,52.57
2022-08-18T05:06:48.192Z,50.63
2022-08-18T05:09:22.971Z,45.90
2022-08-18T05:11:52.116Z,46.67
2022-08-18T05:14:21.369Z,51.90
2022-08-18T05:16:51.779Z,67.23
2022-08-18T05:19:26.523Z,49.20
2022-08-18T05:21:59.830Z,54.10
2022-08-18T05:24:36.793Z,65.07
2022-08-18T05:27:07.428Z,72.77
2022-08-18T05:29:36.698Z,59.00
2022-08-18T05:32:10.690Z,56.77
2022-08-18T05:35:04.538Z,52.00
2022-08-18T05:37:39.807Z,60.43
2022-08-18T05:40:11.608Z,45.63
2022-08-18T05:42:41.592Z,45.87
2022-08-18T05:45:12.503Z,50.97
2022-08-18T05:47:41.022Z,48.40
2022-08-18T05:50:16.304Z,53.00
2022-08-18T05:52:52.664Z,39.10
2022-08-18T05:55:47.764Z,41.70
2022-08-18T05:58:20.802Z,43.40
2022-08-18T06:00:57.455Z,31.70
2022-08-18T06:03:31.415Z,38.87
2022-08-18T06:06:20.766Z,31.83
2022-08-18T06:08:57.399Z,31.63
2022-08-18T06:11:26.006Z,38.03
2022-08-18T06:13:59.602Z,27.00
2022-08-18T06:16:44.557Z,32.17
2022-08-18T06:19:27.975Z,27.10
2022-08-18T06:22:04.379Z,30.23
2022-08-18T06:24:39.540Z,26.60
2022-08-18T06:27:15.332Z,28.70
2022-08-18T06:29:58.816Z,30.53
2022-08-18T06:32:43.605Z,17.37
2022-08-18T06:35:19.456Z,17.60
2022-08-18T06:38:16.175Z,17.23
2022-08-18T06:40:44.619Z,12.17
2022-08-18T06:43:16.974Z,15.10
2022-08-18T06:45:52.954Z,11.87
2022-08-18T06:48:30.140Z,12.63
2022-08-18T06:51:01.347Z,18.70
2022-08-18T06:53:53.484Z,14.20
2022-08-18T06:56:26.178Z,15.63
2022-08-18T06:58:55.886Z,13.97
2022-08-18T07:01:25.539Z,9.57
2022-08-18T07:03:58.218Z,10.83
2022-08-18T07:06:31.363Z,9.57
2022-08-18T07:09:21.521Z,10.07
2022-08-18T07:12:02.797Z,10.10
2022-08-18T07:14:31.357Z,11.33
2022-08-18T07:17:11.619Z,13.97
2022-08-18T07:19:40.715Z,11.37
2022-08-18T07:22:11.506Z,10.30
2022-08-18T07:24:45.225Z,15.67
2022-08-18T07:27:17.485Z,10.10
2022-08-18T07:30:01.723Z,11.83
2022-08-18T07:32:36.570Z,8.90
2022-08-18T07:35:11.999Z,12.53
2022-08-18T07:37:46.750Z,8.37
2022-08-18T07:40:23.530Z,11.10
2022-08-18T07:43:02.035Z,11.20
2022-08-18T07:45:37.005Z,9.53
2022-08-18T07:48:36.537Z,7.37
2022-08-18T07:51:09.125Z,10.80
2022-08-18T07:53:54.790Z,7.93
2022-08-18T07:56:37.712Z,9.23
2022-08-18T07:59:16.685Z,10.13
2022-08-18T08:01:49.974Z,6.97
2022-08-18T08:04:31.562Z,10.00
2022-08-18T08:07:23.968Z,8.20
2022-08-18T08:10:22.896Z,9.83
2022-08-18T08:13:09.152Z,7.50
2022-08-18T08:15:49.551Z,6.87
2022-08-18T08:18:25.033Z,9.00
2022-08-18T08:20:57.247Z,9.67
2022-08-18T08:23:31.747Z,6.63
2022-08-18T08:26:27.896Z,8.70
2022-08-18T08:29:09.872Z,6.77
2022-08-18T08:31:49.167Z,5.40
2022-08-18T08:34:22.177Z,6.23
2022-08-18T08:36:59.095Z,5.57
2022-08-18T08:39:36.753Z,6.00
2022-08-18T08:42:31.375Z,6.57
2022-08-18T08:45:07.866Z,4.63
2022-08-18T08:47:41.985Z,4.20
2022-08-18T08:50:14.585Z,4.37
2022-08-18T08:52:47.449Z,3.40
2022-08-18T08:55:18.876Z,4.63
2022-08-18T08:57:53.653Z,3.30
2022-08-18T09:00:24.185Z,4.43
2022-08-18T09:03:08.562Z,3.53
2022-08-18T09:05:44.354Z,6.20
2022-08-18T09:08:51.268Z,3.90
2022-08-18T09:11:39.815Z,3.43
2022-08-18T09:14:24.969Z,6.43
2022-08-18T09:17:11.300Z,6.17
2022-08-18T09:20:06.594Z,9.37
2022-08-18T09:22:45.504Z,6.23
2022-08-18T09:25:34.200Z,6.47
2022-08-18T09:28:12.549Z,5.00
2022-08-18T09:30:49.080Z,3.42
2022-08-18T09:33:35.749Z,3.08
2022-08-18T09:36:29.869Z,2.07
2022-08-18T09:39:23.257Z,4.80
2022-08-18T09:41:55.979Z,9.68
2022-08-18T09:45:01.995Z,3.55
2022-08-18T09:48:00.188Z,2.80
2022-08-18T09:50:55.353Z,2.72
2022-08-18T09:53:51.009Z,3.00
2022-08-18T09:57:19.487Z,4.82
2022-08-18T10:00:13.100Z,2.95
2022-08-18T10:03:13.832Z,3.25
2022-08-18T10:05:59.704Z,5.03
2022-08-18T10:08:46.129Z,3.10
2022-08-18T10:11:36.971Z,3.60
2022-08-18T10:14:31.551Z,4.10
2022-08-18T10:17:23.818Z,4.90
2022-08-18T10:20:02.131Z,4.67
2022-08-18T10:22:47.881Z,4.60
2022-08-18T10:25:33.748Z,6.47
2022-08-18T10:28:05.370Z,3.43
2022-08-18T10:31:06.547Z,3.80
2022-08-18T10:34:15.995Z,3.70
2022-08-18T10:36:54.014Z,5.13
2022-08-18T10:39:50.278Z,3.00
2022-08-18T10:42:30.913Z,3.10
2022-08-18T10:45:10.742Z,2.97
2022-08-18T10:47:39.423Z,3.47
2022-08-18T10:50:19.587Z,3.50
2022-08-18T10:53:24.798Z,2.95
2022-08-18T10:56:01.197Z,4.15
2022-08-18T10:58:54.529Z,3.42
2022-08-18T11:01:44.758Z,6.45
2022-08-18T11:04:34.749Z,3.38
2022-08-18T11:07:12.127Z,4.25
2022-08-18T11:09:46.013Z,4.03
2022-08-18T11:13:00.243Z,3.10
2022-08-18T11:15:42.682Z,3.37
2022-08-18T11:18:28.963Z,5.23
2022-08-18T11:21:31.348Z,3.80
2022-08-18T11:24:11.917Z,3.10
2022-08-18T11:26:44.143Z,2.80
2022-08-18T11:29:32.177Z,4.83
2022-08-18T11:32:12.393Z,3.20
2022-08-18T11:34:51.901Z,2.97
2022-08-18T11:37:26.980Z,6.20
2022-08-18T11:39:58.510Z,3.70
2022-08-18T11:42:33.198Z,2.17
2022-08-18T11:45:16.778Z,6.65
2022-08-18T11:48:03.052Z,2.38
2022-08-18T11:50:33.621Z,3.00
2022-08-18T11:53:18.809Z,2.88
2022-08-18T11:56:13.566Z,3.33
2022-08-18T11:58:45.998Z,3.60
2022-08-18T12:04:37.380Z,4.43
2022-08-18T12:07:09.252Z,3.20
2022-08-18T12:15:44.255Z,2.20
2022-08-18T12:18:29.007Z,2.88
2022-08-18T12:20:59.075Z,4.18
2022-08-18T12:23:27.954Z,2.65
2022-08-18T12:26:27.414Z,5.60
2022-08-18T12:29:01.481Z,4.50
2022-08-18T12:34:25.125Z,4.18
2022-08-18T12:37:57.814Z,3.47
2022-08-18T12:40:06.331Z,4.65
2022-08-18T12:42:35.663Z,5.72
2022-08-18T12:45:04.392Z,2.67
2022-08-18T12:47:40.106Z,3.23
2022-08-18T12:50:12.373Z,3.20
2022-08-18T12:52:41.045Z,7.00
2022-08-18T12:55:21.280Z,2.20
2022-08-18T12:58:01.073Z,2.80
2022-08-18T13:00:29.623Z,4.32
2022-08-18T13:02:59.277Z,2.70
2022-08-18T13:05:30.043Z,2.40
2022-08-18T13:08:04.506Z,4.22
2022-08-18T13:10:43.151Z,3.58
2022-08-18T13:13:15.191Z,2.50
2022-08-18T13:15:44.291Z,1.90
2022-08-18T13:18:29.032Z,2.50
2022-08-18T13:20:59.552Z,4.75
2022-08-18T13:23:28.529Z,2.55
2022-08-18T13:26:01.219Z,2.63
2022-08-18T13:28:35.942Z,3.50
2022-08-18T13:31:21.104Z,2.72
2022-08-18T13:33:59.351Z,4.22
2022-08-18T13:36:44.300Z,2.92
2022-08-18T13:39:16.999Z,2.60
2022-08-18T13:41:46.534Z,3.95
2022-08-18T13:44:18.646Z,4.35
2022-08-18T13:46:49.357Z,3.88
2022-08-18T13:49:23.519Z,3.65
2022-08-18T13:52:00.898Z,5.13
2022-08-18T13:54:35.504Z,4.13
2022-08-18T13:57:04.891Z,2.95
2022-08-18T13:59:35.180Z,2.10
2022-08-18T14:02:09.097Z,2.88
2022-08-18T14:04:38.340Z,2.30
2022-08-18T14:07:11.129Z,1.80
2022-08-18T14:09:41.102Z,3.40
2022-08-18T14:12:23.761Z,2.20
2022-08-18T14:14:54.331Z,3.70
2022-08-18T14:17:25.918Z,1.88
2022-08-18T14:20:21.345Z,2.17
2022-08-18T14:23:12.101Z,4.07
2022-08-18T14:25:59.778Z,2.10
2022-08-18T14:28:28.736Z,2.90
2022-08-18T14:30:58.581Z,3.30
2022-08-18T14:33:49.566Z,1.73
2022-08-18T14:36:18.990Z,4.13
2022-08-18T14:38:51.498Z,5.78
2022-08-18T14:41:20.842Z,3.63
2022-08-18T14:44:12.723Z,4.05
2022-08-18T14:46:51.988Z,5.93
2022-08-18T14:49:28.790Z,4.10
2022-08-18T14:51:59.446Z,5.25
2022-08-18T14:54:30.734Z,3.05
2022-08-18T14:57:01.648Z,2.95
2022-08-18T14:59:37.592Z,4.25
2022-08-18T15:02:13.027Z,2.70
2022-08-18T15:04:55.794Z,3.03
2022-08-18T15:07:26.746Z,2.58
2022-08-18T15:10:15.684Z,2.67
2022-08-18T15:12:45.772Z,5.90
2022-08-18T15:15:16.762Z,4.18
2022-08-18T15:17:49.575Z,2.80
2022-08-18T15:20:23.903Z,1.77
2022-08-18T15:23:22.787Z,2.03
2022-08-18T15:25:59.039Z,2.45
2022-08-18T15:28:27.950Z,6.35
2022-08-18T15:33:50.207Z,3.08
2022-08-18T15:36:28.719Z,3.05
2022-08-18T15:38:58.731Z,7.82
2022-08-18T15:41:35.585Z,2.13
2022-08-18T15:44:13.547Z,3.65
2022-08-18T15:46:42.278Z,5.88
2022-08-18T15:49:19.934Z,4.15
2022-08-18T15:51:52.448Z,2.60
2022-08-18T15:54:21.065Z,4.32
2022-08-18T15:56:57.734Z,3.92
2022-08-18T15:59:34.295Z,5.93
2022-08-18T16:02:11.652Z,2.42
2022-08-18T16:04:41.288Z,1.98
2022-08-18T16:07:11.755Z,4.40
2022-08-18T16:09:40.338Z,2.67
2022-08-18T16:12:11.334Z,3.55
2022-08-18T16:14:40.308Z,5.10
2022-08-18T16:17:23.486Z,2.42
2022-08-18T16:19:52.548Z,2.10
2022-08-18T16:22:23.219Z,4.22
2022-08-18T16:24:55.093Z,4.18
2022-08-18T16:27:29.653Z,3.78
2022-08-18T16:29:58.187Z,8.00
2022-08-18T16:32:26.972Z,3.72
2022-08-18T16:34:55.452Z,4.88
2022-08-18T16:37:24.027Z,2.60
2022-08-18T16:39:52.484Z,3.05
2022-08-18T16:42:21.258Z,2.90
2022-08-18T16:44:51.112Z,5.00
2022-08-18T16:47:19.572Z,2.23
2022-08-18T16:49:50.945Z,3.30
2022-08-18T16:52:20.037Z,3.53
2022-08-18T16:54:49.125Z,4.60
2022-08-18T16:57:50.576Z,2.93
2022-08-18T17:00:42.325Z,2.30
2022-08-18T17:03:29.642Z,2.33
2022-08-18T17:06:02.915Z,2.43
2022-08-18T17:08:34.109Z,2.83
2022-08-18T17:11:02.830Z,2.83
2022-08-18T17:13:31.796Z,1.90
2022-08-18T17:16:01.964Z,3.70
2022-08-18T17:18:30.546Z,4.13
2022-08-18T17:21:03.429Z,2.37
2022-08-18T17:23:32.190Z,3.27
2022-08-18T17:26:02.651Z,3.40
2022-08-18T17:28:43.931Z,2.90
2022-08-18T17:31:24.308Z,3.57
2022-08-18T17:33:57.185Z,2.07
2022-08-18T17:36:32.623Z,2.40
2022-08-18T17:39:04.255Z,2.53
2022-08-18T17:41:33.068Z,3.63
2022-08-18T17:44:03.232Z,2.07
2022-08-18T17:46:41.071Z,2.63
2022-08-18T17:49:18.796Z,3.37
2022-08-18T17:51:48.991Z,2.50
2022-08-18T17:54:30.568Z,2.33
2022-08-18T17:57:05.453Z,3.97
2022-08-18T17:59:46.155Z,2.97
2022-08-18T18:02:29.919Z,1.90
2022-08-18T18:04:59.729Z,2.00
2022-08-18T18:07:30.388Z,4.80
2022-08-18T18:10:01.859Z,6.17
2022-08-18T18:12:32.352Z,2.70
2022-08-18T18:15:02.115Z,2.03
2022-08-18T18:17:37.579Z,3.70
2022-08-18T18:20:17.319Z,3.10
2022-08-18T18:22:46.700Z,2.70
2022-08-18T18:25:34.478Z,4.17
2022-08-18T18:28:03.410Z,3.87
2022-08-18T18:30:32.774Z,8.00
2022-08-18T18:33:08.079Z,2.90
2022-08-18T18:35:53.454Z,3.67
2022-08-18T18:38:30.654Z,5.47
2022-08-18T18:41:02.475Z,4.67
2022-08-18T18:43:38.737Z,2.60
2022-08-18T18:46:30.196Z,2.87
2022-08-18T18:49:16.287Z,2.27
2022-08-18T18:51:54.815Z,3.13
2022-08-18T18:54:40.894Z,4.07
2022-08-18T18:57:14.473Z,4.80
2022-08-18T18:59:55.088Z,2.60
2022-08-18T19:02:34.600Z,2.73
2022-08-18T19:05:18.585Z,5.67
2022-08-18T19:08:00.096Z,2.53
2022-08-18T19:10:35.234Z,3.80
2022-08-18T19:13:10.492Z,4.53
2022-08-18T19:15:40.872Z,4.50
2022-08-18T19:18:22.293Z,2.23
2022-08-18T19:22:01.787Z,5.67
2022-08-18T19:23:47.344Z,2.20
2022-08-18T19:26:22.679Z,6.43
2022-08-18T19:29:01.169Z,3.07
2022-08-18T19:31:46.572Z,6.33
2022-08-18T19:34:19.312Z,2.87
2022-08-18T19:36:58.084Z,2.70
2022-08-18T19:39:33.458Z,2.50
2022-08-18T19:42:09.348Z,2.23
2022-08-18T19:44:47.406Z,2.20
2022-08-18T19:47:36.621Z,3.83
2022-08-18T19:50:13.701Z,3.00
2022-08-18T19:53:16.192Z,2.97
2022-08-18T19:56:10.221Z,4.47
2022-08-18T19:59:19.354Z,3.83
2022-08-18T20:02:01.593Z,3.17
2022-08-18T20:04:47.650Z,6.70
2022-08-18T20:07:43.260Z,5.73
2022-08-18T20:10:48.376Z,4.33
2022-08-18T20:13:32.797Z,5.57
2022-08-18T20:16:35.451Z,5.33
2022-08-18T20:19:45.790Z,6.83
2022-08-18T20:22:31.332Z,5.10
2022-08-18T20:25:05.969Z,5.20
2022-08-18T20:27:39.111Z,9.83
2022-08-18T20:30:33.928Z,8.13
2022-08-18T20:33:31.383Z,7.27
2022-08-18T20:36:20.127Z,7.60
2022-08-18T20:38:50.385Z,4.90
2022-08-18T20:41:38.085Z,6.60
2022-08-18T20:44:46.032Z,4.80
2022-08-18T20:47:29.271Z,6.97
2022-08-18T20:50:16.599Z,6.77
2022-08-18T20:52:58.188Z,4.10
2022-08-18T20:55:36.452Z,7.20
2022-08-18T20:58:11.665Z,4.53
2022-08-18T21:00:44.134Z,8.33
2022-08-18T21:03:15.692Z,4.13
2022-08-18T21:05:46.480Z,9.00
2022-08-18T21:08:26.449Z,4.43
2022-08-18T21:10:57.170Z,5.47
2022-08-18T21:13:31.550Z,6.40
2022-08-18T21:16:01.416Z,6.00
2022-08-18T21:18:30.073Z,7.17
2022-08-18T21:21:00.360Z,7.47
2022-08-18T21:23:30.869Z,9.07
2022-08-18T21:26:06.349Z,6.87
2022-08-18T21:28:38.762Z,6.30
2022-08-18T21:31:42.574Z,5.37
2022-08-18T21:34:18.402Z,5.27
2022-08-18T21:36:53.460Z,8.07
2022-08-18T21:39:24.073Z,6.37
2022-08-18T21:41:54.577Z,6.70
2022-08-18T21:44:26.454Z,10.80
2022-08-18T21:47:09.505Z,11.07
2022-08-18T21:49:38.029Z,5.10
2022-08-18T21:52:07.088Z,5.50
2022-08-18T21:54:35.849Z,4.77
2022-08-18T21:57:21.015Z,7.13
2022-08-18T22:00:12.623Z,6.37
2022-08-18T22:02:42.782Z,5.47
2022-08-18T22:05:12.017Z,5.40
2022-08-18T22:07:47.776Z,5.90
2022-08-18T22:10:43.545Z,5.27
2022-08-18T22:13:39.739Z,7.23
2022-08-18T22:16:28.162Z,7.10
2022-08-18T22:19:13.216Z,6.50
2022-08-18T22:21:46.472Z,5.67
2022-08-18T22:24:19.546Z,5.10
2022-08-18T22:26:51.589Z,7.47
2022-08-18T22:29:28.109Z,5.70
2022-08-18T22:31:56.913Z,5.23
2022-08-18T22:34:29.014Z,8.33
2022-08-18T22:37:00.496Z,8.33
2022-08-18T22:39:31.065Z,10.40
2022-08-18T22:41:59.784Z,16.70
2022-08-18T22:44:28.564Z,8.40
2022-08-18T22:46:57.575Z,7.10
2022-08-18T22:49:27.428Z,10.10
2022-08-18T22:51:57.781Z,5.00
2022-08-18T22:54:26.625Z,10.57
2022-08-18T22:56:57.632Z,6.47
2022-08-18T22:59:26.929Z,6.63
2022-08-18T23:01:57.884Z,6.40
2022-08-18T23:04:28.447Z,5.30
2022-08-18T23:06:57.170Z,7.27
2022-08-18T23:09:28.355Z,5.37
2022-08-18T23:12:00.989Z,6.63
2022-08-18T23:14:33.068Z,5.70
2022-08-18T23:17:02.457Z,7.83
2022-08-18T23:19:32.431Z,8.10
2022-08-18T23:22:01.352Z,5.03
2022-08-18T23:24:30.246Z,6.10
2022-08-18T23:26:59.155Z,7.10
2022-08-18T23:29:28.559Z,7.40
2022-08-18T23:31:57.063Z,5.37
2022-08-18T23:34:27.299Z,7.77
2022-08-18T23:37:00.883Z,4.40
2022-08-18T23:39:31.304Z,4.83
2022-08-18T23:42:01.637Z,6.00
2022-08-18T23:44:30.672Z,6.63
2022-08-18T23:47:00.130Z,4.77
2022-08-18T23:49:29.472Z,7.30
2022-08-18T23:52:01.040Z,5.73
2022-08-18T23:54:33.484Z,4.43
2022-08-18T23:57:02.516Z,9.30
2022-08-18T23:59:31.276Z,6.37
